Disclaimer

Please do not use the information listed here in-flight or in-navigation, as they are not provided to us by the airports but are provided by volunteers, so they might be outdated.

Search


Regions


Airport information page

Radio informations:
Tower (TWR) - 118.7 MHz

Airport informations:
Latitude: 26° 43' 24.73" N
Longitude: 008° 37' 21.55" E
Elevation: 1778 feet - 542 meters
Operating hours: Remarks
Operating agency: Civil government, landing fees and diplomatic clearance may be required
Timezone: UTC+1
Fuel: Unknown fuel type or whether there is any fuel.

Runway information:
09/27 - 9843 x 148 feet< - >3000 x 45 meters

Recent METARs:
DAAP 130100Z 17005KT CAVOK 09/M01 Q1020
DAAP 130200Z 29002KT CAVOK 08/M01 Q1020
DAAP 130200Z 29002KT CAVOK 08/M01 Q1020

Airport on the map: